createdAt,value
2018-06-08T00:01:55.728Z,18.63
2018-06-08T00:04:28.341Z,18.71
2018-06-08T00:07:01.044Z,18.81
2018-06-08T00:09:34.934Z,18.77
2018-06-08T00:12:07.963Z,18.74
2018-06-08T00:14:40.604Z,18.70
2018-06-08T00:17:14.921Z,18.68
2018-06-08T00:19:48.221Z,18.77
2018-06-08T00:22:27.320Z,18.73
2018-06-08T00:25:00.569Z,18.72
2018-06-08T00:27:33.051Z,18.71
2018-06-08T00:30:11.056Z,18.71
2018-06-08T00:32:45.769Z,18.69
2018-06-08T00:35:24.627Z,18.68
2018-06-08T00:37:58.073Z,18.67
2018-06-08T00:40:31.481Z,18.70
2018-06-08T00:43:06.699Z,18.68
2018-06-08T00:45:42.072Z,18.65
2018-06-08T00:48:14.847Z,18.63
2018-06-08T00:50:47.969Z,18.75
2018-06-08T00:53:20.540Z,18.75
2018-06-08T00:55:53.968Z,18.72
2018-06-08T00:58:27.992Z,18.72
2018-06-08T01:03:33.695Z,18.73
2018-06-08T01:06:08.223Z,18.68
2018-06-08T01:08:40.975Z,18.61
2018-06-08T01:11:14.008Z,18.54
2018-06-08T01:13:46.973Z,18.48
2018-06-08T01:16:20.534Z,18.44
2018-06-08T01:18:54.056Z,18.44
2018-06-08T01:21:27.129Z,18.42
2018-06-08T01:23:59.699Z,18.39
2018-06-08T01:26:32.261Z,18.35
2018-06-08T01:29:05.561Z,18.32
2018-06-08T01:31:38.492Z,18.29
2018-06-08T01:34:11.598Z,18.28
2018-06-08T01:36:44.444Z,18.30
2018-06-08T01:39:17.328Z,18.32
2018-06-08T01:41:52.773Z,18.31
2018-06-08T01:44:25.868Z,18.29
2018-06-08T01:46:59.544Z,18.27
2018-06-08T01:49:31.964Z,18.26
2018-06-08T01:52:04.791Z,18.23
2018-06-08T01:54:37.403Z,18.21
2018-06-08T01:57:10.113Z,18.20
2018-06-08T01:59:43.043Z,18.21
2018-06-08T02:02:15.900Z,18.20
2018-06-08T02:04:49.765Z,18.19
2018-06-08T02:07:23.358Z,18.19
2018-06-08T02:09:55.978Z,18.33
2018-06-08T02:12:28.568Z,18.28
2018-06-08T02:15:04.609Z,18.23
2018-06-08T02:17:37.424Z,18.34
2018-06-08T02:20:09.999Z,18.26
2018-06-08T02:22:42.877Z,18.20
2018-06-08T02:25:15.569Z,18.15
2018-06-08T02:27:48.236Z,18.13
2018-06-08T02:30:22.047Z,18.12
2018-06-08T02:32:54.714Z,18.26
2018-06-08T02:35:27.477Z,18.27
2018-06-08T02:38:00.942Z,18.27
2018-06-08T02:40:34.733Z,18.27
2018-06-08T02:43:08.054Z,18.25
2018-06-08T02:45:40.769Z,18.33
2018-06-08T02:48:14.413Z,18.27
2018-06-08T02:50:47.030Z,18.24
2018-06-08T02:53:21.105Z,18.26
2018-06-08T02:55:53.586Z,18.20
2018-06-08T02:58:26.414Z,18.15
2018-06-08T03:00:59.193Z,18.14
2018-06-08T03:03:31.889Z,18.15
2018-06-08T03:06:04.350Z,18.12
2018-06-08T03:08:37.145Z,18.10
2018-06-08T03:11:09.673Z,18.12
2018-06-08T03:13:43.691Z,18.17
2018-06-08T03:16:17.222Z,18.16
2018-06-08T03:18:50.329Z,18.12
2018-06-08T03:21:23.384Z,18.12
2018-06-08T03:23:56.303Z,18.20
2018-06-08T03:26:29.572Z,18.34
2018-06-08T03:29:05.909Z,18.30
2018-06-08T03:31:38.492Z,18.20
2018-06-08T03:34:11.102Z,18.17
2018-06-08T03:36:43.640Z,18.13
2018-06-08T03:39:17.216Z,18.10
2018-06-08T03:41:50.012Z,18.10
2018-06-08T03:44:25.696Z,18.09
2018-06-08T03:46:59.830Z,18.11
2018-06-08T03:49:33.408Z,18.23
2018-06-08T03:52:06.057Z,18.21
2018-06-08T03:54:39.109Z,18.22
2018-06-08T03:57:11.660Z,18.25
2018-06-08T03:59:45.297Z,18.28
2018-06-08T04:02:18.188Z,18.32
2018-06-08T04:04:53.447Z,18.35
2018-06-08T04:07:27.554Z,18.37
2018-06-08T04:10:01.603Z,18.40
2018-06-08T04:12:34.761Z,18.43
2018-06-08T04:15:07.323Z,18.44
2018-06-08T04:17:40.220Z,18.45
2018-06-08T04:20:12.628Z,18.48
2018-06-08T04:22:45.424Z,18.50
2018-06-08T04:25:18.515Z,18.53
2018-06-08T04:27:51.541Z,18.55
2018-06-08T04:30:24.874Z,18.57
2018-06-08T04:32:58.477Z,18.61
2018-06-08T04:35:32.328Z,18.78
2018-06-08T04:38:06.813Z,18.97
2018-06-08T04:40:39.381Z,19.03
2018-06-08T04:43:12.290Z,19.09
2018-06-08T04:45:45.397Z,19.15
2018-06-08T04:48:18.013Z,19.28
2018-06-08T04:50:50.476Z,19.29
2018-06-08T04:53:24.500Z,19.31
2018-06-08T04:55:57.127Z,19.34
2018-06-08T04:58:30.396Z,19.35
2018-06-08T05:01:03.301Z,19.38
2018-06-08T05:03:37.086Z,19.39
2018-06-08T05:06:09.606Z,19.48
2018-06-08T05:08:42.496Z,19.44
2018-06-08T05:11:14.982Z,19.41
2018-06-08T05:13:49.711Z,19.40
2018-06-08T05:16:23.368Z,19.40
2018-06-08T05:18:57.260Z,19.44
2018-06-08T05:21:30.430Z,19.45
2018-06-08T05:24:03.696Z,19.47
2018-06-08T05:26:37.456Z,19.58
2018-06-08T05:29:10.515Z,19.56
2018-06-08T05:31:43.198Z,19.52
2018-06-08T05:34:16.731Z,19.53
2018-06-08T05:36:49.795Z,19.57
2018-06-08T05:41:48.090Z,19.72
2018-06-08T05:44:21.898Z,19.75
2018-06-08T05:46:55.247Z,19.76
2018-06-08T05:49:28.563Z,19.79
2018-06-08T05:52:01.223Z,19.83
2018-06-08T05:54:34.266Z,19.89
2018-06-08T05:57:06.824Z,19.94
2018-06-08T05:59:39.747Z,20.02
2018-06-08T06:02:15.599Z,20.10
2018-06-08T06:04:49.356Z,20.17
2018-06-08T06:07:22.252Z,20.29
2018-06-08T06:09:55.356Z,20.45
2018-06-08T06:12:29.587Z,20.59
2018-06-08T06:15:06.750Z,20.69
2018-06-08T06:17:42.438Z,20.76
2018-06-08T06:20:17.789Z,20.79
2018-06-08T06:22:53.320Z,20.87
2018-06-08T06:25:26.928Z,21.01
2018-06-08T06:27:59.400Z,21.01
2018-06-08T06:30:32.196Z,21.07
2018-06-08T06:33:05.787Z,21.11
2018-06-08T06:35:39.454Z,21.05
2018-06-08T06:38:12.297Z,21.13
2018-06-08T06:40:45.279Z,21.29
2018-06-08T06:43:17.719Z,21.40
2018-06-08T06:45:50.065Z,21.49
2018-06-08T06:48:23.739Z,21.51
2018-06-08T06:50:56.133Z,21.54
2018-06-08T06:53:28.466Z,21.55
2018-06-08T06:56:01.974Z,21.54
2018-06-08T06:58:34.964Z,21.54
2018-06-08T07:01:08.013Z,21.58
2018-06-08T07:03:43.284Z,21.66
2018-06-08T07:06:15.848Z,21.72
2018-06-08T07:08:48.416Z,21.78
2018-06-08T07:11:21.208Z,21.80
2018-06-08T07:13:57.289Z,21.85
2018-06-08T07:16:29.948Z,21.92
2018-06-08T07:19:02.871Z,21.93
2018-06-08T07:21:37.350Z,21.98
2018-06-08T07:24:11.450Z,22.06
2018-06-08T07:26:47.764Z,22.14
2018-06-08T07:29:39.809Z,22.37
2018-06-08T07:32:13.148Z,22.46
2018-06-08T07:34:48.212Z,22.69
2018-06-08T07:37:21.099Z,22.84
2018-06-08T07:39:56.375Z,23.06
2018-06-08T07:42:29.061Z,23.16
2018-06-08T07:45:04.071Z,23.17
2018-06-08T07:47:37.089Z,23.46
2018-06-08T07:50:09.685Z,23.50
2018-06-08T07:52:44.314Z,23.83
2018-06-08T07:55:17.057Z,24.30
2018-06-08T07:57:52.534Z,24.44
2018-06-08T08:00:26.538Z,24.09
2018-06-08T08:03:00.197Z,23.88
2018-06-08T08:05:32.911Z,23.66
2018-06-08T08:08:07.195Z,23.45
2018-06-08T08:10:39.818Z,23.22
2018-06-08T08:13:13.417Z,23.14
2018-06-08T08:15:49.363Z,22.73
2018-06-08T08:18:22.860Z,22.62
2018-06-08T08:20:55.421Z,22.58
2018-06-08T08:23:33.320Z,22.54
2018-06-08T08:26:08.260Z,22.55
2018-06-08T08:28:46.096Z,22.60
2018-06-08T08:31:18.777Z,22.62
2018-06-08T08:33:52.771Z,22.90
2018-06-08T08:36:29.414Z,23.17
2018-06-08T08:39:05.213Z,23.44
2018-06-08T08:41:39.087Z,23.38
2018-06-08T08:44:12.597Z,23.33
2018-06-08T08:46:47.932Z,23.36
2018-06-08T08:49:24.248Z,23.43
2018-06-08T08:51:58.086Z,23.61
2018-06-08T08:54:32.332Z,23.67
2018-06-08T08:57:06.212Z,23.89
2018-06-08T08:59:43.875Z,24.04
2018-06-08T09:02:17.598Z,23.95
2018-06-08T09:04:52.479Z,23.76
2018-06-08T09:07:26.767Z,23.73
2018-06-08T09:10:00.837Z,23.25
2018-06-08T09:12:33.992Z,23.01
2018-06-08T09:15:06.738Z,22.87
2018-06-08T09:17:39.822Z,22.68
2018-06-08T09:20:14.515Z,22.58
2018-06-08T09:22:51.025Z,22.22
2018-06-08T09:25:24.776Z,21.94
2018-06-08T09:27:58.001Z,21.82
2018-06-08T09:30:30.534Z,21.58
2018-06-08T09:33:03.418Z,21.33
2018-06-08T09:35:37.835Z,21.12
2018-06-08T09:38:11.686Z,20.95
2018-06-08T09:40:49.288Z,20.78
2018-06-08T09:43:24.728Z,20.67
2018-06-08T09:45:59.812Z,20.61
2018-06-08T09:48:33.110Z,20.60
2018-06-08T09:51:06.711Z,20.46
2018-06-08T09:53:47.236Z,20.36
2018-06-08T09:56:25.926Z,20.20
2018-06-08T09:59:07.106Z,20.06
2018-06-08T10:01:48.269Z,19.96
2018-06-08T10:04:30.311Z,19.89
2018-06-08T10:07:04.973Z,19.83
2018-06-08T10:09:37.492Z,19.82
2018-06-08T10:12:11.788Z,19.79
2018-06-08T10:14:48.157Z,19.74
2018-06-08T10:17:21.697Z,19.70
2018-06-08T10:19:58.116Z,19.66
2018-06-08T10:22:31.360Z,19.61
2018-06-08T10:25:06.197Z,19.60
2018-06-08T10:27:39.241Z,19.59
2018-06-08T10:30:13.664Z,19.59
2018-06-08T10:32:47.712Z,19.56
2018-06-08T10:35:20.603Z,19.51
2018-06-08T10:37:56.454Z,19.51
2018-06-08T10:40:31.016Z,19.46
2018-06-08T10:43:06.255Z,19.44
2018-06-08T10:45:39.881Z,19.43
2018-06-08T10:48:30.568Z,19.44
2018-06-08T10:51:04.643Z,19.41
2018-06-08T10:53:39.324Z,19.39
2018-06-08T10:56:13.597Z,19.37
2018-06-08T10:58:48.031Z,19.38
2018-06-08T11:01:22.171Z,19.46
2018-06-08T11:03:58.137Z,19.55
2018-06-08T11:06:42.725Z,19.65
2018-06-08T11:09:16.275Z,19.74
2018-06-08T11:11:49.100Z,19.84
2018-06-08T11:14:23.581Z,19.95
2018-06-08T11:17:00.827Z,20.18
2018-06-08T11:19:35.840Z,20.25
2018-06-08T11:22:10.257Z,20.36
2018-06-08T11:24:44.703Z,20.41
2018-06-08T11:27:18.602Z,20.55
2018-06-08T11:29:59.197Z,20.65
2018-06-08T11:32:33.707Z,20.75
2018-06-08T11:35:07.156Z,20.85
2018-06-08T11:37:43.810Z,20.90
2018-06-08T11:40:19.428Z,20.87
2018-06-08T11:42:59.968Z,20.80
2018-06-08T11:45:36.082Z,20.70
2018-06-08T11:48:09.803Z,20.66
2018-06-08T11:50:45.224Z,20.58
2018-06-08T11:53:18.701Z,20.62
2018-06-08T11:55:58.028Z,20.60
2018-06-08T11:58:32.531Z,20.73
2018-06-08T12:01:07.443Z,20.91
2018-06-08T12:03:40.012Z,20.97
2018-06-08T12:06:26.387Z,20.98
2018-06-08T12:09:08.845Z,20.99
2018-06-08T12:11:43.590Z,21.09
2018-06-08T12:14:17.183Z,21.26
2018-06-08T12:16:49.723Z,21.29
2018-06-08T12:19:22.765Z,21.35
2018-06-08T12:21:56.846Z,21.43
2018-06-08T12:24:29.613Z,21.49
2018-06-08T12:27:06.900Z,21.55
2018-06-08T12:29:43.957Z,21.69
2018-06-08T12:32:27.716Z,21.94
2018-06-08T12:35:06.867Z,21.95
2018-06-08T12:37:45.107Z,21.90
2018-06-08T12:40:18.445Z,21.94
2018-06-08T12:42:53.291Z,21.94
2018-06-08T12:45:30.572Z,22.20
2018-06-08T12:48:06.544Z,22.52
2018-06-08T12:50:41.288Z,22.87
2018-06-08T12:53:14.713Z,23.21
2018-06-08T12:55:48.723Z,23.65
2018-06-08T12:58:22.558Z,23.81
2018-06-08T13:00:59.199Z,24.02
2018-06-08T13:03:35.192Z,24.36
2018-06-08T13:06:09.021Z,24.83
2018-06-08T13:08:42.956Z,25.22
2018-06-08T13:11:23.671Z,25.27
2018-06-08T13:13:57.909Z,25.21
2018-06-08T13:16:32.385Z,25.40
2018-06-08T13:19:05.823Z,25.48
2018-06-08T13:21:40.809Z,25.39
2018-06-08T13:24:18.949Z,25.19
2018-06-08T13:26:54.366Z,25.16
2018-06-08T13:29:29.018Z,25.46
2018-06-08T13:32:02.841Z,25.57
2018-06-08T13:34:38.948Z,25.88
2018-06-08T13:37:21.250Z,26.28
2018-06-08T13:39:56.623Z,26.66
2018-06-08T13:42:39.354Z,26.92
2018-06-08T13:45:18.504Z,26.82
2018-06-08T13:47:54.773Z,26.68
2018-06-08T13:50:29.309Z,26.77
2018-06-08T13:53:08.031Z,26.40
2018-06-08T13:55:42.942Z,26.25
2018-06-08T13:58:21.704Z,26.50
2018-06-08T14:00:55.592Z,27.08
2018-06-08T14:03:32.772Z,27.62
2018-06-08T14:06:14.410Z,28.12
2018-06-08T14:08:50.502Z,28.78
2018-06-08T14:11:29.864Z,29.23
2018-06-08T14:14:06.580Z,29.83
2018-06-08T14:16:42.686Z,29.45
2018-06-08T14:19:22.004Z,29.26
2018-06-08T14:21:54.998Z,28.94
2018-06-08T14:24:31.356Z,28.37
2018-06-08T14:27:05.901Z,27.75
2018-06-08T14:29:48.552Z,27.61
2018-06-08T14:32:26.959Z,27.61
2018-06-08T14:35:01.039Z,27.75
2018-06-08T14:37:35.836Z,28.15
2018-06-08T14:40:09.219Z,28.44
2018-06-08T14:42:42.765Z,28.81
2018-06-08T14:45:27.628Z,28.54
2018-06-08T14:48:03.275Z,28.24
2018-06-08T14:50:37.701Z,27.64
2018-06-08T14:53:28.199Z,27.41
2018-06-08T14:56:06.472Z,26.99
2018-06-08T14:58:49.391Z,26.97
2018-06-08T15:01:26.824Z,27.16
2018-06-08T15:04:10.163Z,27.40
2018-06-08T15:06:44.417Z,27.46
2018-06-08T15:09:29.772Z,27.58
2018-06-08T15:12:04.687Z,27.60
2018-06-08T15:14:37.808Z,27.57
2018-06-08T15:17:11.225Z,27.26
2018-06-08T15:19:46.546Z,26.79
2018-06-08T15:22:26.957Z,26.50
2018-06-08T15:25:02.079Z,26.13
2018-06-08T15:27:40.018Z,25.85
2018-06-08T15:30:14.708Z,25.74
2018-06-08T15:32:47.465Z,25.70
2018-06-08T15:35:25.373Z,25.61
2018-06-08T15:37:59.173Z,25.57
2018-06-08T15:40:41.954Z,25.86
2018-06-08T15:43:16.025Z,26.00
2018-06-08T15:45:50.757Z,26.13
2018-06-08T15:48:32.108Z,26.19
2018-06-08T15:51:07.488Z,26.07
2018-06-08T15:53:40.615Z,25.94
2018-06-08T15:56:15.054Z,25.83
2018-06-08T15:58:49.611Z,25.66
2018-06-08T16:01:22.406Z,25.54
2018-06-08T16:03:58.848Z,25.49
2018-06-08T16:06:39.074Z,25.37
2018-06-08T16:09:12.323Z,25.30
2018-06-08T16:11:45.289Z,25.28
2018-06-08T16:14:19.447Z,25.25
2018-06-08T16:16:53.772Z,25.49
2018-06-08T16:19:37.196Z,26.02
2018-06-08T16:22:11.283Z,26.17
2018-06-08T16:24:46.092Z,26.21
2018-06-08T16:27:21.388Z,26.39
2018-06-08T16:29:57.148Z,26.45
2018-06-08T16:32:37.653Z,26.45
2018-06-08T16:35:11.344Z,26.55
2018-06-08T16:37:47.019Z,26.50
2018-06-08T16:40:29.981Z,26.49
2018-06-08T16:43:04.232Z,26.22
2018-06-08T16:45:38.683Z,26.08
2018-06-08T16:48:12.256Z,25.96
2018-06-08T16:50:47.283Z,25.86
2018-06-08T16:53:27.627Z,25.82
2018-06-08T16:56:02.220Z,25.73
2018-06-08T16:58:38.619Z,25.72
2018-06-08T17:01:11.105Z,25.81
2018-06-08T17:03:44.709Z,25.98
2018-06-08T17:06:19.652Z,26.16
2018-06-08T17:08:52.132Z,26.19
2018-06-08T17:11:34.654Z,26.29
2018-06-08T17:14:08.502Z,26.39
2018-06-08T17:16:48.401Z,26.22
2018-06-08T17:19:22.553Z,26.23
2018-06-08T17:22:01.961Z,26.34
2018-06-08T17:24:39.883Z,26.42
2018-06-08T17:27:20.256Z,26.44
2018-06-08T17:29:57.316Z,26.50
2018-06-08T17:32:42.084Z,26.39
2018-06-08T17:35:17.226Z,26.27
2018-06-08T17:37:52.395Z,26.17
2018-06-08T17:40:39.757Z,25.90
2018-06-08T17:43:25.150Z,25.62
2018-06-08T17:46:04.772Z,25.48
2018-06-08T17:48:43.957Z,25.18
2018-06-08T17:51:21.676Z,24.90
2018-06-08T17:54:00.931Z,24.64
2018-06-08T17:56:35.984Z,24.48
2018-06-08T17:59:14.028Z,24.31
2018-06-08T18:01:51.957Z,24.32
2018-06-08T18:04:29.787Z,24.23
2018-06-08T18:07:08.487Z,24.14
2018-06-08T18:09:44.096Z,24.04
2018-06-08T18:12:17.345Z,23.98
2018-06-08T18:14:52.789Z,23.98
2018-06-08T18:17:26.907Z,24.05
2018-06-08T18:20:07.548Z,24.08
2018-06-08T18:22:44.667Z,24.16
2018-06-08T18:25:21.832Z,23.99
2018-06-08T18:28:04.060Z,23.89
2018-06-08T18:30:38.791Z,23.79
2018-06-08T18:33:14.767Z,23.84
2018-06-08T18:36:10.517Z,23.74
2018-06-08T18:38:45.866Z,23.61
2018-06-08T18:41:21.032Z,23.54
2018-06-08T18:43:59.839Z,23.46
2018-06-08T18:46:36.061Z,23.35
2018-06-08T18:49:17.945Z,23.27
2018-06-08T18:51:59.842Z,23.14
2018-06-08T18:55:00.318Z,23.16
2018-06-08T18:57:35.468Z,23.04
2018-06-08T19:00:08.132Z,22.97
2018-06-08T19:02:42.420Z,22.93
2018-06-08T19:05:17.109Z,22.88
2018-06-08T19:07:59.884Z,22.75
2018-06-08T19:10:39.751Z,22.76
2018-06-08T19:23:15.248Z,22.23
2018-06-08T19:25:54.135Z,22.09
2018-06-08T19:28:28.725Z,22.05
2018-06-08T19:31:02.552Z,21.92
2018-06-08T19:33:36.578Z,21.82
2018-06-08T19:36:09.285Z,21.80
2018-06-08T19:38:43.600Z,21.63
2018-06-08T19:41:20.842Z,21.52
2018-06-08T19:44:05.965Z,21.45
2018-06-08T19:46:42.174Z,21.37
2018-06-08T19:49:17.870Z,21.28
2018-06-08T19:51:55.415Z,21.19
2018-06-08T19:54:29.325Z,21.14
2018-06-08T19:57:08.768Z,21.07
2018-06-08T19:59:48.073Z,21.13
2018-06-08T20:02:24.998Z,21.02
2018-06-08T20:05:03.829Z,20.91
2018-06-08T20:07:44.429Z,20.88
2018-06-08T20:10:19.319Z,20.80
2018-06-08T20:12:52.765Z,20.87
2018-06-08T20:15:27.997Z,20.77
2018-06-08T20:18:27.046Z,20.74
2018-06-08T20:21:06.281Z,20.69
2018-06-08T20:23:41.249Z,20.63
2018-06-08T20:26:17.424Z,20.60
2018-06-08T20:28:52.110Z,20.59
2018-06-08T20:31:27.457Z,20.51
2018-06-08T20:34:10.421Z,20.46
2018-06-08T20:36:45.469Z,20.52
2018-06-08T20:39:23.112Z,20.44
2018-06-08T20:41:58.838Z,20.37
2018-06-08T20:44:34.321Z,20.35
2018-06-08T20:47:13.110Z,20.32
2018-06-08T20:50:10.007Z,20.40
2018-06-08T20:52:48.540Z,20.43
2018-06-08T20:55:32.141Z,20.43
2018-06-08T20:58:26.473Z,20.43
2018-06-08T21:01:12.849Z,20.44
2018-06-08T21:03:51.200Z,20.44
2018-06-08T21:06:30.806Z,20.40
2018-06-08T21:09:12.137Z,20.25
2018-06-08T21:11:50.549Z,20.17
2018-06-08T21:14:28.424Z,20.12
2018-06-08T21:17:04.450Z,20.21
2018-06-08T21:19:42.540Z,20.27
2018-06-08T21:22:23.673Z,20.15
2018-06-08T21:24:58.615Z,20.08
2018-06-08T21:27:51.886Z,20.05
2018-06-08T21:30:39.826Z,20.02
2018-06-08T21:33:18.381Z,20.03
2018-06-08T21:35:55.671Z,20.06
2018-06-08T21:38:31.863Z,20.04
2018-06-08T21:41:16.044Z,19.98
2018-06-08T21:44:01.446Z,19.93
2018-06-08T21:46:35.125Z,19.97
2018-06-08T21:49:11.356Z,19.89
2018-06-08T21:51:54.498Z,19.80
2018-06-08T21:54:28.806Z,19.73
2018-06-08T21:57:04.480Z,19.67
2018-06-08T21:59:37.026Z,19.63
2018-06-08T22:02:11.914Z,19.59
2018-06-08T22:04:46.182Z,19.54
2018-06-08T22:07:21.901Z,19.50
2018-06-08T22:10:02.256Z,19.49
2018-06-08T22:12:40.855Z,19.50
2018-06-08T22:15:16.509Z,19.60
2018-06-08T22:17:51.623Z,19.50
2018-06-08T22:20:26.457Z,19.41
2018-06-08T22:22:59.953Z,19.30
2018-06-08T22:25:33.126Z,19.18
2018-06-08T22:28:06.090Z,19.09
2018-06-08T22:30:39.688Z,19.02
2018-06-08T22:33:15.629Z,18.94
2018-06-08T22:35:50.288Z,18.97
2018-06-08T22:38:27.686Z,18.98
2018-06-08T22:41:10.474Z,18.86
2018-06-08T22:45:13.121Z,18.75
2018-06-08T22:47:47.134Z,18.76
2018-06-08T22:50:21.508Z,18.73
2018-06-08T22:52:57.301Z,18.85
2018-06-08T22:55:30.598Z,18.90
2018-06-08T22:58:06.309Z,18.96
2018-06-08T23:00:39.926Z,18.86
2018-06-08T23:03:14.172Z,18.95
2018-06-08T23:05:49.025Z,18.86
2018-06-08T23:08:25.878Z,18.77
2018-06-08T23:11:00.078Z,18.67
2018-06-08T23:13:34.078Z,18.64
2018-06-08T23:16:10.694Z,18.60
2018-06-08T23:18:44.967Z,18.53
2018-06-08T23:21:19.009Z,18.53
2018-06-08T23:23:54.296Z,18.51
2018-06-08T23:26:28.141Z,18.55
2018-06-08T23:29:03.392Z,18.55
2018-06-08T23:31:36.993Z,18.51
2018-06-08T23:34:09.792Z,18.46
2018-06-08T23:36:46.002Z,18.50
2018-06-08T23:39:20.512Z,18.48
2018-06-08T23:41:54.285Z,18.46
2018-06-08T23:44:28.981Z,18.44
2018-06-08T23:47:03.644Z,18.52
2018-06-08T23:49:36.384Z,18.50
2018-06-08T23:52:12.201Z,18.49
2018-06-08T23:54:45.741Z,18.54
2018-06-08T23:57:19.946Z,18.57
2018-06-08T23:59:57.045Z,18.54
